Airport View

Enter AWOS ICAO identifier for current METAR.

ex. KFNL

PAGN 080356Z AUTO 33003KT 10SM -RA BKN045 OVC055 12/11 A2983 RMK AO2 RAB06E33B50 SLP091 P0000 T01220111

8 Aug 2020 05:59

Frequency: 118.325

Phone: 907-788-3120

Other Area AWOS: PASI - PAFE - PAOH - PAJN

TAF AMD PASI 080214Z 0802/0824 19011KT 6SM -SHRA BKN015 OVC030 FM080600 20012KT 4SM -SHRA BR BKN025 OVC040 FM081300 15010KT P6SM -SHRA OVC040